sensor_id;sensor_type;location;lat;lon;timestamp;temperature;humidity
35804;DHT22;21924;51.934;7.414;2022-09-01T00:02:40;16.50;99.90
35804;DHT22;21924;51.934;7.414;2022-09-01T00:05:25;16.40;99.90
35804;DHT22;21924;51.934;7.414;2022-09-01T00:08:09;16.40;99.90
35804;DHT22;21924;51.934;7.414;2022-09-01T00:10:53;16.30;99.90
35804;DHT22;21924;51.934;7.414;2022-09-01T00:13:38;16.20;99.90
35804;DHT22;21924;51.934;7.414;2022-09-01T00:16:22;16.20;99.90
35804;DHT22;21924;51.934;7.414;2022-09-01T00:19:07;16.20;99.90
35804;DHT22;21924;51.934;7.414;2022-09-01T00:21:51;16.20;99.90
35804;DHT22;21924;51.934;7.414;2022-09-01T00:24:35;16.10;99.90
35804;DHT22;21924;51.934;7.414;2022-09-01T00:27:19;16.00;99.90
35804;DHT22;21924;51.934;7.414;2022-09-01T00:30:03;15.90;99.90
35804;DHT22;21924;51.934;7.414;2022-09-01T00:32:48;15.90;99.90
35804;DHT22;21924;51.934;7.414;2022-09-01T00:35:32;15.90;99.90
35804;DHT22;21924;51.934;7.414;2022-09-01T00:38:16;15.90;99.90
35804;DHT22;21924;51.934;7.414;2022-09-01T00:41:00;15.90;99.90
35804;DHT22;21924;51.934;7.414;2022-09-01T00:46:30;15.80;99.90
35804;DHT22;21924;51.934;7.414;2022-09-01T00:49:20;15.80;99.90
35804;DHT22;21924;51.934;7.414;2022-09-01T00:54:58;15.70;99.90
35804;DHT22;21924;51.934;7.414;2022-09-01T00:57:43;15.70;99.90
35804;DHT22;21924;51.934;7.414;2022-09-01T01:00:29;15.70;99.90
35804;DHT22;21924;51.934;7.414;2022-09-01T01:03:13;15.70;99.90
35804;DHT22;21924;51.934;7.414;2022-09-01T01:05:59;15.60;99.90
35804;DHT22;21924;51.934;7.414;2022-09-01T01:08:45;15.60;99.90
35804;DHT22;21924;51.934;7.414;2022-09-01T01:11:40;15.60;99.90
35804;DHT22;21924;51.934;7.414;2022-09-01T01:14:28;15.60;99.90
35804;DHT22;21924;51.934;7.414;2022-09-01T01:17:15;15.50;99.90
35804;DHT22;21924;51.934;7.414;2022-09-01T01:19:58;15.50;99.90
35804;DHT22;21924;51.934;7.414;2022-09-01T01:23:20;15.50;99.90
35804;DHT22;21924;51.934;7.414;2022-09-01T01:26:08;15.40;99.90
35804;DHT22;21924;51.934;7.414;2022-09-01T01:28:53;15.40;99.90
35804;DHT22;21924;51.934;7.414;2022-09-01T01:31:37;15.50;99.90
35804;DHT22;21924;51.934;7.414;2022-09-01T01:34:21;15.40;99.90
35804;DHT22;21924;51.934;7.414;2022-09-01T01:37:06;15.30;99.90
35804;DHT22;21924;51.934;7.414;2022-09-01T01:39:50;15.30;99.90
35804;DHT22;21924;51.934;7.414;2022-09-01T01:42:34;15.30;99.90
35804;DHT22;21924;51.934;7.414;2022-09-01T01:45:21;15.30;99.90
35804;DHT22;21924;51.934;7.414;2022-09-01T01:48:06;15.20;99.90
35804;DHT22;21924;51.934;7.414;2022-09-01T01:50:52;15.30;99.90
35804;DHT22;21924;51.934;7.414;2022-09-01T01:53:37;15.20;99.90
35804;DHT22;21924;51.934;7.414;2022-09-01T01:56:22;15.30;99.90
35804;DHT22;21924;51.934;7.414;2022-09-01T01:59:09;15.20;99.90
35804;DHT22;21924;51.934;7.414;2022-09-01T02:01:58;15.20;99.90
35804;DHT22;21924;51.934;7.414;2022-09-01T02:04:46;15.20;99.90
35804;DHT22;21924;51.934;7.414;2022-09-01T02:07:30;15.20;99.90
35804;DHT22;21924;51.934;7.414;2022-09-01T02:10:15;15.10;99.90
35804;DHT22;21924;51.934;7.414;2022-09-01T02:13:00;15.10;99.90
35804;DHT22;21924;51.934;7.414;2022-09-01T02:15:49;15.10;99.90
35804;DHT22;21924;51.934;7.414;2022-09-01T02:18:37;15.10;99.90
35804;DHT22;21924;51.934;7.414;2022-09-01T02:21:22;15.10;99.90
35804;DHT22;21924;51.934;7.414;2022-09-01T02:24:06;15.10;99.90
35804;DHT22;21924;51.934;7.414;2022-09-01T02:26:51;15.10;99.90
35804;DHT22;21924;51.934;7.414;2022-09-01T02:29:35;15.00;99.90
35804;DHT22;21924;51.934;7.414;2022-09-01T02:32:19;14.90;99.90
35804;DHT22;21924;51.934;7.414;2022-09-01T02:35:05;14.90;99.90
35804;DHT22;21924;51.934;7.414;2022-09-01T02:37:53;14.90;99.90
35804;DHT22;21924;51.934;7.414;2022-09-01T02:40:44;14.90;99.90
35804;DHT22;21924;51.934;7.414;2022-09-01T02:43:28;14.90;99.90
35804;DHT22;21924;51.934;7.414;2022-09-01T02:46:14;14.90;99.90
35804;DHT22;21924;51.934;7.414;2022-09-01T02:48:59;14.90;99.90
35804;DHT22;21924;51.934;7.414;2022-09-01T02:51:44;15.00;99.90
35804;DHT22;21924;51.934;7.414;2022-09-01T02:54:29;15.00;99.90
35804;DHT22;21924;51.934;7.414;2022-09-01T02:57:14;15.00;99.90
35804;DHT22;21924;51.934;7.414;2022-09-01T02:59:59;15.00;99.90
35804;DHT22;21924;51.934;7.414;2022-09-01T03:02:43;15.00;99.90
35804;DHT22;21924;51.934;7.414;2022-09-01T03:05:28;15.00;99.90
35804;DHT22;21924;51.934;7.414;2022-09-01T03:08:13;14.90;99.90
35804;DHT22;21924;51.934;7.414;2022-09-01T03:10:59;14.90;99.90
35804;DHT22;21924;51.934;7.414;2022-09-01T03:13:44;14.80;99.90
35804;DHT22;21924;51.934;7.414;2022-09-01T03:16:29;14.80;99.90
35804;DHT22;21924;51.934;7.414;2022-09-01T03:19:15;14.70;99.90
35804;DHT22;21924;51.934;7.414;2022-09-01T03:22:01;14.70;99.90
35804;DHT22;21924;51.934;7.414;2022-09-01T03:24:45;14.70;99.90
35804;DHT22;21924;51.934;7.414;2022-09-01T03:27:30;14.70;99.90
35804;DHT22;21924;51.934;7.414;2022-09-01T03:30:14;14.60;99.90
35804;DHT22;21924;51.934;7.414;2022-09-01T03:32:58;14.70;99.90
35804;DHT22;21924;51.934;7.414;2022-09-01T03:35:43;14.70;99.90
35804;DHT22;21924;51.934;7.414;2022-09-01T03:38:27;14.60;99.90
35804;DHT22;21924;51.934;7.414;2022-09-01T03:41:12;14.70;99.90
35804;DHT22;21924;51.934;7.414;2022-09-01T03:43:56;14.80;99.90
35804;DHT22;21924;51.934;7.414;2022-09-01T03:46:44;14.80;99.90
35804;DHT22;21924;51.934;7.414;2022-09-01T03:49:28;14.80;99.90
35804;DHT22;21924;51.934;7.414;2022-09-01T03:52:12;14.80;99.90
35804;DHT22;21924;51.934;7.414;2022-09-01T03:54:57;14.90;99.90
35804;DHT22;21924;51.934;7.414;2022-09-01T03:57:42;14.80;99.90
35804;DHT22;21924;51.934;7.414;2022-09-01T04:00:27;14.80;99.90
35804;DHT22;21924;51.934;7.414;2022-09-01T04:03:13;14.70;99.90
35804;DHT22;21924;51.934;7.414;2022-09-01T04:05:57;14.70;99.90
35804;DHT22;21924;51.934;7.414;2022-09-01T04:08:41;14.70;99.90
35804;DHT22;21924;51.934;7.414;2022-09-01T04:11:25;14.70;99.90
35804;DHT22;21924;51.934;7.414;2022-09-01T04:14:09;14.60;99.90
35804;DHT22;21924;51.934;7.414;2022-09-01T04:16:54;14.60;99.90
35804;DHT22;21924;51.934;7.414;2022-09-01T04:19:57;14.60;99.90
35804;DHT22;21924;51.934;7.414;2022-09-01T04:22:41;14.50;99.90
35804;DHT22;21924;51.934;7.414;2022-09-01T04:25:26;14.50;99.90
35804;DHT22;21924;51.934;7.414;2022-09-01T04:28:10;14.40;99.90
35804;DHT22;21924;51.934;7.414;2022-09-01T04:31:09;14.40;99.90
35804;DHT22;21924;51.934;7.414;2022-09-01T04:33:57;14.30;99.90
35804;DHT22;21924;51.934;7.414;2022-09-01T04:36:42;14.20;99.90
35804;DHT22;21924;51.934;7.414;2022-09-01T04:39:27;14.30;99.90
35804;DHT22;21924;51.934;7.414;2022-09-01T04:42:12;14.20;99.90
35804;DHT22;21924;51.934;7.414;2022-09-01T04:44:57;14.30;99.90
35804;DHT22;21924;51.934;7.414;2022-09-01T04:47:42;14.20;99.90
35804;DHT22;21924;51.934;7.414;2022-09-01T04:50:28;14.10;99.90
35804;DHT22;21924;51.934;7.414;2022-09-01T04:53:14;14.10;99.90
35804;DHT22;21924;51.934;7.414;2022-09-01T04:56:04;14.10;99.90
35804;DHT22;21924;51.934;7.414;2022-09-01T04:58:50;14.10;99.90
35804;DHT22;21924;51.934;7.414;2022-09-01T05:01:35;14.10;99.90
35804;DHT22;21924;51.934;7.414;2022-09-01T05:04:30;14.10;99.90
35804;DHT22;21924;51.934;7.414;2022-09-01T05:07:16;14.10;99.90
35804;DHT22;21924;51.934;7.414;2022-09-01T05:10:00;14.20;99.90
35804;DHT22;21924;51.934;7.414;2022-09-01T05:12:45;14.20;99.90
35804;DHT22;21924;51.934;7.414;2022-09-01T05:15:29;14.20;99.90
35804;DHT22;21924;51.934;7.414;2022-09-01T05:18:17;14.30;99.90
35804;DHT22;21924;51.934;7.414;2022-09-01T05:21:06;14.40;99.90
35804;DHT22;21924;51.934;7.414;2022-09-01T05:23:54;14.40;99.90
35804;DHT22;21924;51.934;7.414;2022-09-01T05:26:39;14.40;99.90
35804;DHT22;21924;51.934;7.414;2022-09-01T05:29:25;14.40;99.90
35804;DHT22;21924;51.934;7.414;2022-09-01T05:32:10;14.40;99.90
35804;DHT22;21924;51.934;7.414;2022-09-01T05:34:55;14.50;99.90
35804;DHT22;21924;51.934;7.414;2022-09-01T05:37:40;14.50;99.90
35804;DHT22;21924;51.934;7.414;2022-09-01T05:40:24;14.60;99.90
35804;DHT22;21924;51.934;7.414;2022-09-01T05:43:10;14.60;99.90
35804;DHT22;21924;51.934;7.414;2022-09-01T05:45:56;14.60;99.90
35804;DHT22;21924;51.934;7.414;2022-09-01T05:48:41;14.70;99.90
35804;DHT22;21924;51.934;7.414;2022-09-01T05:51:26;14.60;99.90
35804;DHT22;21924;51.934;7.414;2022-09-01T05:54:11;14.70;99.90
35804;DHT22;21924;51.934;7.414;2022-09-01T05:56:57;14.80;99.90
35804;DHT22;21924;51.934;7.414;2022-09-01T05:59:46;14.80;99.90
35804;DHT22;21924;51.934;7.414;2022-09-01T06:02:36;14.80;99.90
35804;DHT22;21924;51.934;7.414;2022-09-01T06:05:21;14.90;99.90
35804;DHT22;21924;51.934;7.414;2022-09-01T06:08:06;15.00;99.90
35804;DHT22;21924;51.934;7.414;2022-09-01T06:10:51;15.00;99.90
35804;DHT22;21924;51.934;7.414;2022-09-01T06:13:35;15.00;99.90
35804;DHT22;21924;51.934;7.414;2022-09-01T06:16:20;15.10;99.90
35804;DHT22;21924;51.934;7.414;2022-09-01T06:19:06;15.10;99.90
35804;DHT22;21924;51.934;7.414;2022-09-01T06:21:51;15.20;99.90
35804;DHT22;21924;51.934;7.414;2022-09-01T06:24:36;15.20;99.90
35804;DHT22;21924;51.934;7.414;2022-09-01T06:27:22;15.20;99.90
35804;DHT22;21924;51.934;7.414;2022-09-01T06:30:06;15.30;99.90
35804;DHT22;21924;51.934;7.414;2022-09-01T06:32:57;15.30;99.90
35804;DHT22;21924;51.934;7.414;2022-09-01T06:35:44;15.30;99.90
35804;DHT22;21924;51.934;7.414;2022-09-01T06:38:29;15.40;99.90
35804;DHT22;21924;51.934;7.414;2022-09-01T06:41:13;15.50;99.90
35804;DHT22;21924;51.934;7.414;2022-09-01T06:43:58;15.50;99.90
35804;DHT22;21924;51.934;7.414;2022-09-01T06:46:44;15.60;99.90
35804;DHT22;21924;51.934;7.414;2022-09-01T06:49:28;15.60;99.90
35804;DHT22;21924;51.934;7.414;2022-09-01T06:52:16;15.70;99.90
35804;DHT22;21924;51.934;7.414;2022-09-01T06:55:01;15.70;99.90
35804;DHT22;21924;51.934;7.414;2022-09-01T06:57:45;15.80;99.90
35804;DHT22;21924;51.934;7.414;2022-09-01T07:00:32;15.90;99.90
35804;DHT22;21924;51.934;7.414;2022-09-01T07:03:18;15.90;99.90
35804;DHT22;21924;51.934;7.414;2022-09-01T07:06:03;16.00;99.90
35804;DHT22;21924;51.934;7.414;2022-09-01T07:08:48;16.10;99.90
35804;DHT22;21924;51.934;7.414;2022-09-01T07:11:32;16.20;99.90
35804;DHT22;21924;51.934;7.414;2022-09-01T07:14:17;16.20;99.90
35804;DHT22;21924;51.934;7.414;2022-09-01T07:17:01;16.30;99.90
35804;DHT22;21924;51.934;7.414;2022-09-01T07:19:45;16.40;99.90
35804;DHT22;21924;51.934;7.414;2022-09-01T07:22:31;16.40;99.90
35804;DHT22;21924;51.934;7.414;2022-09-01T07:25:15;16.50;99.90
35804;DHT22;21924;51.934;7.414;2022-09-01T07:28:00;16.60;99.90
35804;DHT22;21924;51.934;7.414;2022-09-01T07:30:46;16.60;99.90
35804;DHT22;21924;51.934;7.414;2022-09-01T07:33:31;16.70;99.90
35804;DHT22;21924;51.934;7.414;2022-09-01T07:36:17;16.70;99.90
35804;DHT22;21924;51.934;7.414;2022-09-01T07:39:02;16.80;99.90
35804;DHT22;21924;51.934;7.414;2022-09-01T07:41:47;16.90;99.90
35804;DHT22;21924;51.934;7.414;2022-09-01T07:44:31;16.90;99.90
35804;DHT22;21924;51.934;7.414;2022-09-01T07:47:16;17.00;99.90
35804;DHT22;21924;51.934;7.414;2022-09-01T07:50:00;17.20;99.90
35804;DHT22;21924;51.934;7.414;2022-09-01T07:52:44;17.40;99.90
35804;DHT22;21924;51.934;7.414;2022-09-01T07:55:32;17.50;99.90
35804;DHT22;21924;51.934;7.414;2022-09-01T07:58:18;17.60;99.90
35804;DHT22;21924;51.934;7.414;2022-09-01T08:01:10;17.70;99.90
35804;DHT22;21924;51.934;7.414;2022-09-01T08:03:56;17.70;99.90
35804;DHT22;21924;51.934;7.414;2022-09-01T08:06:40;17.80;99.90
35804;DHT22;21924;51.934;7.414;2022-09-01T08:09:24;17.90;99.90
35804;DHT22;21924;51.934;7.414;2022-09-01T08:12:09;18.10;99.90
35804;DHT22;21924;51.934;7.414;2022-09-01T08:14:53;18.30;99.90
35804;DHT22;21924;51.934;7.414;2022-09-01T08:17:38;18.50;99.90
35804;DHT22;21924;51.934;7.414;2022-09-01T08:20:22;18.60;99.90
35804;DHT22;21924;51.934;7.414;2022-09-01T08:23:06;18.70;99.90
35804;DHT22;21924;51.934;7.414;2022-09-01T08:25:50;18.80;99.90
35804;DHT22;21924;51.934;7.414;2022-09-01T08:28:34;19.00;99.90
35804;DHT22;21924;51.934;7.414;2022-09-01T08:31:19;19.00;99.90
35804;DHT22;21924;51.934;7.414;2022-09-01T08:34:03;19.10;99.90
35804;DHT22;21924;51.934;7.414;2022-09-01T08:36:48;19.20;99.90
35804;DHT22;21924;51.934;7.414;2022-09-01T08:39:32;19.20;99.90
35804;DHT22;21924;51.934;7.414;2022-09-01T08:42:41;19.50;99.90
35804;DHT22;21924;51.934;7.414;2022-09-01T08:45:31;19.60;99.90
35804;DHT22;21924;51.934;7.414;2022-09-01T08:48:19;19.70;99.90
35804;DHT22;21924;51.934;7.414;2022-09-01T08:51:07;19.80;99.90
35804;DHT22;21924;51.934;7.414;2022-09-01T08:54:00;19.80;99.90
35804;DHT22;21924;51.934;7.414;2022-09-01T08:56:46;20.00;99.90
35804;DHT22;21924;51.934;7.414;2022-09-01T08:59:33;19.90;99.90
35804;DHT22;21924;51.934;7.414;2022-09-01T09:11:33;20.20;99.90
35804;DHT22;21924;51.934;7.414;2022-09-01T09:17:26;20.40;99.90
35804;DHT22;21924;51.934;7.414;2022-09-01T09:20:12;20.40;99.90
35804;DHT22;21924;51.934;7.414;2022-09-01T09:22:56;20.50;99.90
35804;DHT22;21924;51.934;7.414;2022-09-01T09:25:41;20.60;99.90
35804;DHT22;21924;51.934;7.414;2022-09-01T09:28:25;20.70;99.90
35804;DHT22;21924;51.934;7.414;2022-09-01T09:31:25;20.70;99.90
35804;DHT22;21924;51.934;7.414;2022-09-01T09:43:01;21.00;99.90
35804;DHT22;21924;51.934;7.414;2022-09-01T09:45:45;21.10;99.90
35804;DHT22;21924;51.934;7.414;2022-09-01T09:48:30;21.20;99.90
35804;DHT22;21924;51.934;7.414;2022-09-01T09:51:20;21.30;99.90
35804;DHT22;21924;51.934;7.414;2022-09-01T10:00:00;22.00;98.70
35804;DHT22;21924;51.934;7.414;2022-09-01T10:02:45;22.10;98.90
35804;DHT22;21924;51.934;7.414;2022-09-01T10:05:45;22.00;98.50
35804;DHT22;21924;51.934;7.414;2022-09-01T10:08:41;22.10;98.10
35804;DHT22;21924;51.934;7.414;2022-09-01T10:17:03;22.40;96.50
35804;DHT22;21924;51.934;7.414;2022-09-01T10:19:53;22.70;96.70
35804;DHT22;21924;51.934;7.414;2022-09-01T10:22:38;23.00;96.20
35804;DHT22;21924;51.934;7.414;2022-09-01T10:25:25;23.40;95.30
35804;DHT22;21924;51.934;7.414;2022-09-01T10:28:14;23.20;95.90
35804;DHT22;21924;51.934;7.414;2022-09-01T10:30:59;23.40;96.50
35804;DHT22;21924;51.934;7.414;2022-09-01T10:33:44;23.50;96.30
35804;DHT22;21924;51.934;7.414;2022-09-01T10:36:28;23.70;96.10
35804;DHT22;21924;51.934;7.414;2022-09-01T10:39:14;23.80;95.80
35804;DHT22;21924;51.934;7.414;2022-09-01T10:41:59;23.80;95.20
35804;DHT22;21924;51.934;7.414;2022-09-01T10:44:54;23.50;94.70
35804;DHT22;21924;51.934;7.414;2022-09-01T10:47:38;23.30;95.00
35804;DHT22;21924;51.934;7.414;2022-09-01T10:53:07;23.00;96.00
35804;DHT22;21924;51.934;7.414;2022-09-01T11:15:50;23.80;95.50
35804;DHT22;21924;51.934;7.414;2022-09-01T11:18:34;24.00;94.60
35804;DHT22;21924;51.934;7.414;2022-09-01T11:21:29;23.70;94.10
35804;DHT22;21924;51.934;7.414;2022-09-01T11:30:22;24.40;94.00
35804;DHT22;21924;51.934;7.414;2022-09-01T11:36:04;24.10;94.30
35804;DHT22;21924;51.934;7.414;2022-09-01T11:38:50;24.20;94.40
35804;DHT22;21924;51.934;7.414;2022-09-01T11:47:32;23.60;94.40
35804;DHT22;21924;51.934;7.414;2022-09-01T11:50:20;23.80;94.10
35804;DHT22;21924;51.934;7.414;2022-09-01T11:53:06;24.10;94.00
35804;DHT22;21924;51.934;7.414;2022-09-01T11:55:52;24.40;94.00
35804;DHT22;21924;51.934;7.414;2022-09-01T11:58:36;24.40;93.50
35804;DHT22;21924;51.934;7.414;2022-09-01T12:01:43;24.50;93.60
35804;DHT22;21924;51.934;7.414;2022-09-01T12:04:31;25.10;93.00
35804;DHT22;21924;51.934;7.414;2022-09-01T12:07:27;25.10;91.70
35804;DHT22;21924;51.934;7.414;2022-09-01T12:10:14;25.20;92.00
35804;DHT22;21924;51.934;7.414;2022-09-01T12:15:51;24.50;91.20
35804;DHT22;21924;51.934;7.414;2022-09-01T12:18:37;24.70;91.30
35804;DHT22;21924;51.934;7.414;2022-09-01T12:24:20;24.50;91.20
35804;DHT22;21924;51.934;7.414;2022-09-01T12:27:04;24.90;91.10
35804;DHT22;21924;51.934;7.414;2022-09-01T12:29:49;25.40;90.80
35804;DHT22;21924;51.934;7.414;2022-09-01T12:32:34;24.60;91.10
35804;DHT22;21924;51.934;7.414;2022-09-01T12:35:22;24.30;91.30
35804;DHT22;21924;51.934;7.414;2022-09-01T12:41:03;25.20;91.00
35804;DHT22;21924;51.934;7.414;2022-09-01T12:47:09;25.50;90.10
35804;DHT22;21924;51.934;7.414;2022-09-01T12:49:56;25.50;90.20
35804;DHT22;21924;51.934;7.414;2022-09-01T12:52:47;25.30;90.30
35804;DHT22;21924;51.934;7.414;2022-09-01T12:55:34;25.40;89.90
35804;DHT22;21924;51.934;7.414;2022-09-01T12:58:20;25.50;88.40
35804;DHT22;21924;51.934;7.414;2022-09-01T13:01:05;25.50;90.10
35804;DHT22;21924;51.934;7.414;2022-09-01T13:04:11;26.20;89.70
35804;DHT22;21924;51.934;7.414;2022-09-01T13:06:59;26.70;89.00
35804;DHT22;21924;51.934;7.414;2022-09-01T13:09:43;26.30;89.30
35804;DHT22;21924;51.934;7.414;2022-09-01T13:12:28;25.70;88.80
35804;DHT22;21924;51.934;7.414;2022-09-01T13:15:12;26.00;89.30
35804;DHT22;21924;51.934;7.414;2022-09-01T13:17:56;26.40;88.80
35804;DHT22;21924;51.934;7.414;2022-09-01T13:20:40;26.00;87.20
35804;DHT22;21924;51.934;7.414;2022-09-01T13:23:25;25.60;88.10
35804;DHT22;21924;51.934;7.414;2022-09-01T13:26:09;26.20;87.70
35804;DHT22;21924;51.934;7.414;2022-09-01T13:28:54;25.60;87.60
35804;DHT22;21924;51.934;7.414;2022-09-01T13:31:38;25.10;88.60
35804;DHT22;21924;51.934;7.414;2022-09-01T13:34:22;25.00;88.90
35804;DHT22;21924;51.934;7.414;2022-09-01T13:37:06;25.20;88.70
35804;DHT22;21924;51.934;7.414;2022-09-01T13:39:50;25.20;88.90
35804;DHT22;21924;51.934;7.414;2022-09-01T13:42:34;24.60;88.60
35804;DHT22;21924;51.934;7.414;2022-09-01T13:45:20;24.70;88.00
35804;DHT22;21924;51.934;7.414;2022-09-01T13:48:05;24.70;87.80
35804;DHT22;21924;51.934;7.414;2022-09-01T13:50:50;25.50;87.40
35804;DHT22;21924;51.934;7.414;2022-09-01T13:53:38;26.00;87.50
35804;DHT22;21924;51.934;7.414;2022-09-01T13:56:22;26.00;86.00
35804;DHT22;21924;51.934;7.414;2022-09-01T13:59:06;25.50;85.90
35804;DHT22;21924;51.934;7.414;2022-09-01T14:01:50;24.90;86.50
35804;DHT22;21924;51.934;7.414;2022-09-01T14:04:34;25.50;86.80
35804;DHT22;21924;51.934;7.414;2022-09-01T14:07:18;26.20;85.80
35804;DHT22;21924;51.934;7.414;2022-09-01T14:10:03;26.10;84.70
35804;DHT22;21924;51.934;7.414;2022-09-01T14:12:48;25.90;85.80
35804;DHT22;21924;51.934;7.414;2022-09-01T14:15:32;26.60;84.70
35804;DHT22;21924;51.934;7.414;2022-09-01T14:18:17;26.50;84.10
35804;DHT22;21924;51.934;7.414;2022-09-01T14:21:02;26.60;84.20
35804;DHT22;21924;51.934;7.414;2022-09-01T14:23:47;26.30;84.10
35804;DHT22;21924;51.934;7.414;2022-09-01T14:26:31;26.20;84.10
35804;DHT22;21924;51.934;7.414;2022-09-01T14:29:15;26.20;84.50
35804;DHT22;21924;51.934;7.414;2022-09-01T14:31:59;25.20;84.70
35804;DHT22;21924;51.934;7.414;2022-09-01T14:34:43;24.90;85.20
35804;DHT22;21924;51.934;7.414;2022-09-01T14:37:28;24.90;85.40
35804;DHT22;21924;51.934;7.414;2022-09-01T14:40:13;24.80;86.00
35804;DHT22;21924;51.934;7.414;2022-09-01T14:42:58;24.50;86.30
35804;DHT22;21924;51.934;7.414;2022-09-01T14:45:42;24.40;86.80
35804;DHT22;21924;51.934;7.414;2022-09-01T14:48:29;24.30;86.70
35804;DHT22;21924;51.934;7.414;2022-09-01T14:51:18;23.90;86.60
35804;DHT22;21924;51.934;7.414;2022-09-01T14:54:02;23.80;87.00
35804;DHT22;21924;51.934;7.414;2022-09-01T14:56:47;23.80;87.10
35804;DHT22;21924;51.934;7.414;2022-09-01T14:59:31;23.80;87.00
35804;DHT22;21924;51.934;7.414;2022-09-01T15:02:15;23.90;86.30
35804;DHT22;21924;51.934;7.414;2022-09-01T15:04:59;24.00;86.40
35804;DHT22;21924;51.934;7.414;2022-09-01T15:07:43;24.00;86.40
35804;DHT22;21924;51.934;7.414;2022-09-01T15:10:27;23.80;85.20
35804;DHT22;21924;51.934;7.414;2022-09-01T15:13:11;23.80;86.00
35804;DHT22;21924;51.934;7.414;2022-09-01T15:15:56;23.80;85.70
35804;DHT22;21924;51.934;7.414;2022-09-01T15:18:41;23.80;86.40
35804;DHT22;21924;51.934;7.414;2022-09-01T15:21:28;23.70;85.80
35804;DHT22;21924;51.934;7.414;2022-09-01T15:24:16;23.80;86.20
35804;DHT22;21924;51.934;7.414;2022-09-01T15:27:01;23.70;85.80
35804;DHT22;21924;51.934;7.414;2022-09-01T15:29:46;23.70;86.00
35804;DHT22;21924;51.934;7.414;2022-09-01T15:32:31;23.70;86.30
35804;DHT22;21924;51.934;7.414;2022-09-01T15:35:16;23.50;86.20
35804;DHT22;21924;51.934;7.414;2022-09-01T15:38:01;23.50;86.80
35804;DHT22;21924;51.934;7.414;2022-09-01T15:40:46;23.50;87.00
35804;DHT22;21924;51.934;7.414;2022-09-01T15:43:31;23.40;87.10
35804;DHT22;21924;51.934;7.414;2022-09-01T15:46:15;23.50;87.60
35804;DHT22;21924;51.934;7.414;2022-09-01T15:49:03;23.40;87.90
35804;DHT22;21924;51.934;7.414;2022-09-01T15:51:47;23.40;87.80
35804;DHT22;21924;51.934;7.414;2022-09-01T15:54:32;23.50;87.90
35804;DHT22;21924;51.934;7.414;2022-09-01T15:57:19;23.40;87.10
35804;DHT22;21924;51.934;7.414;2022-09-01T16:00:04;23.40;88.00
35804;DHT22;21924;51.934;7.414;2022-09-01T16:02:48;23.40;87.60
35804;DHT22;21924;51.934;7.414;2022-09-01T16:05:33;23.80;87.10
35804;DHT22;21924;51.934;7.414;2022-09-01T16:08:18;24.80;85.30
35804;DHT22;21924;51.934;7.414;2022-09-01T16:11:05;25.20;84.00
35804;DHT22;21924;51.934;7.414;2022-09-01T16:13:53;25.00;83.30
35804;DHT22;21924;51.934;7.414;2022-09-01T16:16:43;24.40;84.70
35804;DHT22;21924;51.934;7.414;2022-09-01T16:19:37;23.90;85.70
35804;DHT22;21924;51.934;7.414;2022-09-01T16:22:41;23.70;86.10
35804;DHT22;21924;51.934;7.414;2022-09-01T16:25:28;23.50;86.20
35804;DHT22;21924;51.934;7.414;2022-09-01T16:28:23;23.40;86.30
35804;DHT22;21924;51.934;7.414;2022-09-01T16:31:12;23.20;86.30
35804;DHT22;21924;51.934;7.414;2022-09-01T16:33:58;23.10;86.90
35804;DHT22;21924;51.934;7.414;2022-09-01T16:42:33;22.90;87.70
35804;DHT22;21924;51.934;7.414;2022-09-01T16:51:03;22.80;88.70
35804;DHT22;21924;51.934;7.414;2022-09-01T16:59:53;22.60;89.60
35804;DHT22;21924;51.934;7.414;2022-09-01T17:05:41;22.50;89.20
35804;DHT22;21924;51.934;7.414;2022-09-01T17:08:31;22.50;90.00
35804;DHT22;21924;51.934;7.414;2022-09-01T17:11:23;22.50;90.00
35804;DHT22;21924;51.934;7.414;2022-09-01T17:14:09;22.30;90.10
35804;DHT22;21924;51.934;7.414;2022-09-01T17:17:08;22.30;90.20
35804;DHT22;21924;51.934;7.414;2022-09-01T17:19:53;22.20;90.20
35804;DHT22;21924;51.934;7.414;2022-09-01T17:22:38;22.20;90.50
35804;DHT22;21924;51.934;7.414;2022-09-01T17:25:26;22.10;90.40
35804;DHT22;21924;51.934;7.414;2022-09-01T17:28:14;22.10;90.30
35804;DHT22;21924;51.934;7.414;2022-09-01T17:31:10;22.00;90.10
35804;DHT22;21924;51.934;7.414;2022-09-01T17:36:54;21.80;90.40
35804;DHT22;21924;51.934;7.414;2022-09-01T17:39:44;21.70;90.40
35804;DHT22;21924;51.934;7.414;2022-09-01T17:45:27;21.60;90.50
35804;DHT22;21924;51.934;7.414;2022-09-01T17:56:44;21.40;90.70
35804;DHT22;21924;51.934;7.414;2022-09-01T18:02:30;21.20;90.80
35804;DHT22;21924;51.934;7.414;2022-09-01T18:05:19;21.20;90.70
35804;DHT22;21924;51.934;7.414;2022-09-01T18:08:15;21.10;90.90
35804;DHT22;21924;51.934;7.414;2022-09-01T18:11:05;21.00;90.90
35804;DHT22;21924;51.934;7.414;2022-09-01T18:13:52;20.90;91.10
35804;DHT22;21924;51.934;7.414;2022-09-01T18:19:26;20.70;91.10
35804;DHT22;21924;51.934;7.414;2022-09-01T18:22:18;20.70;91.10
35804;DHT22;21924;51.934;7.414;2022-09-01T18:25:06;20.70;91.20
35804;DHT22;21924;51.934;7.414;2022-09-01T18:27:52;20.60;91.30
35804;DHT22;21924;51.934;7.414;2022-09-01T18:30:41;20.40;91.50
35804;DHT22;21924;51.934;7.414;2022-09-01T18:33:29;20.30;91.60
35804;DHT22;21924;51.934;7.414;2022-09-01T18:41:56;20.10;92.00
35804;DHT22;21924;51.934;7.414;2022-09-01T18:47:40;19.90;92.30
35804;DHT22;21924;51.934;7.414;2022-09-01T18:50:30;19.80;92.40
35804;DHT22;21924;51.934;7.414;2022-09-01T18:56:15;19.70;92.70
35804;DHT22;21924;51.934;7.414;2022-09-01T18:59:06;19.60;92.70
35804;DHT22;21924;51.934;7.414;2022-09-01T19:04:41;19.50;92.80
35804;DHT22;21924;51.934;7.414;2022-09-01T19:13:33;19.40;93.10
35804;DHT22;21924;51.934;7.414;2022-09-01T19:16:36;19.30;93.10
35804;DHT22;21924;51.934;7.414;2022-09-01T19:19:33;19.40;93.20
35804;DHT22;21924;51.934;7.414;2022-09-01T19:22:33;19.30;93.30
35804;DHT22;21924;51.934;7.414;2022-09-01T19:25:20;19.20;93.30
35804;DHT22;21924;51.934;7.414;2022-09-01T19:33:53;19.10;93.40
35804;DHT22;21924;51.934;7.414;2022-09-01T19:36:41;19.20;93.40
35804;DHT22;21924;51.934;7.414;2022-09-01T19:39:44;19.10;93.50
35804;DHT22;21924;51.934;7.414;2022-09-01T19:45:16;19.00;93.70
35804;DHT22;21924;51.934;7.414;2022-09-01T20:02:11;18.60;94.10
35804;DHT22;21924;51.934;7.414;2022-09-01T20:05:04;18.60;94.20
35804;DHT22;21924;51.934;7.414;2022-09-01T20:07:52;18.50;94.30
35804;DHT22;21924;51.934;7.414;2022-09-01T20:13:46;18.50;94.20
35804;DHT22;21924;51.934;7.414;2022-09-01T20:19:36;18.60;94.10
35804;DHT22;21924;51.934;7.414;2022-09-01T20:25:35;18.50;94.10
35804;DHT22;21924;51.934;7.414;2022-09-01T20:28:27;18.50;94.20
35804;DHT22;21924;51.934;7.414;2022-09-01T20:31:17;18.40;94.30
35804;DHT22;21924;51.934;7.414;2022-09-01T20:34:04;18.40;94.20